createdAt,value
2018-09-15T00:00:02.089Z,21.63
2018-09-15T00:01:01.987Z,21.6
2018-09-15T00:02:02.043Z,21.59
2018-09-15T00:03:02.002Z,21.57
2018-09-15T00:04:02.178Z,21.57
2018-09-15T00:05:01.950Z,21.53
2018-09-15T00:06:01.830Z,21.51
2018-09-15T00:07:01.900Z,21.54
2018-09-15T00:08:02.183Z,21.54
2018-09-15T00:09:02.164Z,21.57
2018-09-15T00:10:02.071Z,21.56
2018-09-15T00:11:02.051Z,21.53
2018-09-15T00:12:02.015Z,21.57
2018-09-15T00:13:03.764Z,21.54
2018-09-15T00:14:02.223Z,21.53
2018-09-15T00:15:02.116Z,21.59
2018-09-15T00:16:04.557Z,21.57
2018-09-15T00:17:04.619Z,21.54
2018-09-15T00:18:04.390Z,21.54
2018-09-15T00:19:02.468Z,21.56
2018-09-15T00:20:02.631Z,21.56
2018-09-15T00:21:03.918Z,21.56
2018-09-15T00:22:04.148Z,21.54
2018-09-15T00:23:02.552Z,21.53
2018-09-15T00:24:04.938Z,21.56
2018-09-15T00:25:02.261Z,21.53
2018-09-15T00:26:04.481Z,21.59
2018-09-15T00:27:02.397Z,21.57
2018-09-15T00:28:04.606Z,21.54
2018-09-15T00:29:02.400Z,21.54
2018-09-15T00:30:04.561Z,21.59
2018-09-15T00:31:02.129Z,21.54
2018-09-15T00:32:02.280Z,21.56
2018-09-15T00:33:02.472Z,21.57
2018-09-15T00:34:02.164Z,21.59
2018-09-15T00:35:02.477Z,21.54
2018-09-15T00:36:02.255Z,21.53
2018-09-15T00:37:04.667Z,21.53
2018-09-15T00:38:04.693Z,21.56
2018-09-15T00:39:05.224Z,21.56
2018-09-15T00:40:02.137Z,21.54
2018-09-15T00:41:02.851Z,21.56
2018-09-15T00:42:04.343Z,21.57
2018-09-15T00:43:04.386Z,21.57
2018-09-15T00:44:02.121Z,21.6
2018-09-15T00:45:02.862Z,21.59
2018-09-15T00:46:04.727Z,21.54
2018-09-15T00:47:02.564Z,21.54
2018-09-15T00:48:02.450Z,21.54
2018-09-15T00:49:04.579Z,21.54
2018-09-15T00:50:04.758Z,21.54
2018-09-15T00:51:02.484Z,21.54
2018-09-15T00:52:03.898Z,21.53
2018-09-15T00:53:02.466Z,21.54
2018-09-15T00:54:04.706Z,21.54
2018-09-15T00:55:02.901Z,21.54
2018-09-15T00:56:04.508Z,21.54
2018-09-15T00:57:04.647Z,21.57
2018-09-15T00:58:04.446Z,21.54
2018-09-15T00:59:02.508Z,21.53
2018-09-15T01:00:02.188Z,21.56
2018-09-15T01:01:04.498Z,21.54
2018-09-15T01:02:04.676Z,21.59
2018-09-15T01:03:02.468Z,21.56
2018-09-15T01:04:04.766Z,21.56
2018-09-15T01:05:02.461Z,21.56
2018-09-15T01:06:04.690Z,21.59
2018-09-15T01:07:02.839Z,21.57
2018-09-15T01:08:03.888Z,21.61
2018-09-15T01:09:04.429Z,21.61
2018-09-15T01:10:04.571Z,21.56
2018-09-15T01:11:02.507Z,21.59
2018-09-15T01:12:02.187Z,21.6
2018-09-15T01:13:04.531Z,21.59
2018-09-15T01:14:03.077Z,21.56
2018-09-15T01:15:02.693Z,21.59
2018-09-15T01:16:02.017Z,21.6
2018-09-15T01:17:02.010Z,21.59
2018-09-15T01:18:02.484Z,21.6
2018-09-15T01:19:01.869Z,21.6
2018-09-15T01:20:02.728Z,21.59
2018-09-15T01:21:01.877Z,21.59
2018-09-15T01:22:02.203Z,21.57
2018-09-15T01:23:01.779Z,21.59
2018-09-15T01:24:02.161Z,21.59
2018-09-15T01:25:02.045Z,21.59
2018-09-15T01:26:02.858Z,21.6
2018-09-15T01:27:01.899Z,21.6
2018-09-15T01:28:01.972Z,21.59
2018-09-15T01:29:01.879Z,21.59
2018-09-15T01:30:02.102Z,21.6
2018-09-15T01:31:01.944Z,21.59
2018-09-15T01:32:01.877Z,21.59
2018-09-15T01:33:01.995Z,21.6
2018-09-15T01:34:02.031Z,21.59
2018-09-15T01:35:01.998Z,21.57
2018-09-15T01:36:02.051Z,21.59
2018-09-15T01:37:02.258Z,21.59
2018-09-15T01:38:01.849Z,21.59
2018-09-15T01:39:01.799Z,21.6
2018-09-15T01:40:02.072Z,21.59
2018-09-15T01:41:01.798Z,21.56
2018-09-15T01:42:02.371Z,21.57
2018-09-15T01:43:01.953Z,21.57
2018-09-15T01:44:02.011Z,21.56
2018-09-15T01:45:01.805Z,21.59
2018-09-15T01:46:01.952Z,21.57
2018-09-15T01:47:01.797Z,21.57
2018-09-15T01:48:02.202Z,21.6
2018-09-15T01:49:01.879Z,21.59
2018-09-15T01:50:01.958Z,21.59
2018-09-15T01:51:01.949Z,21.6
2018-09-15T01:52:02.011Z,21.6
2018-09-15T01:53:01.796Z,21.6
2018-09-15T01:54:02.052Z,21.59
2018-09-15T01:55:02.156Z,21.56
2018-09-15T01:56:02.105Z,21.57
2018-09-15T01:57:01.819Z,21.59
2018-09-15T01:58:01.929Z,21.59
2018-09-15T01:59:02.106Z,21.59
2018-09-15T02:00:02.070Z,21.59
2018-09-15T02:01:02.245Z,21.57
2018-09-15T02:02:02.019Z,21.57
2018-09-15T02:03:01.960Z,21.6
2018-09-15T02:04:01.883Z,21.57
2018-09-15T02:05:01.903Z,21.59
2018-09-15T02:06:01.982Z,21.61
2018-09-15T02:07:01.870Z,21.57
2018-09-15T02:08:02.119Z,21.59
2018-09-15T02:09:01.931Z,21.6
2018-09-15T02:10:01.991Z,21.56
2018-09-15T02:11:01.744Z,21.59
2018-09-15T02:12:01.896Z,21.54
2018-09-15T02:13:01.847Z,21.56
2018-09-15T02:14:02.028Z,21.56
2018-09-15T02:15:01.952Z,21.59
2018-09-15T02:16:01.938Z,21.57
2018-09-15T02:17:01.761Z,21.59
2018-09-15T02:18:01.897Z,21.57
2018-09-15T02:19:02.783Z,21.56
2018-09-15T02:20:01.939Z,21.56
2018-09-15T02:21:01.750Z,21.57
2018-09-15T02:22:02.222Z,21.57
2018-09-15T02:23:02.602Z,21.59
2018-09-15T02:24:01.913Z,21.59
2018-09-15T02:25:01.870Z,21.57
2018-09-15T02:26:01.979Z,21.57
2018-09-15T02:27:01.854Z,21.59
2018-09-15T02:28:01.934Z,21.57
2018-09-15T02:29:02.218Z,21.56
2018-09-15T02:30:02.069Z,21.59
2018-09-15T02:31:01.802Z,21.56
2018-09-15T02:32:01.923Z,21.56
2018-09-15T02:33:01.827Z,21.57
2018-09-15T02:34:02.006Z,21.59
2018-09-15T02:35:02.104Z,21.56
2018-09-15T02:36:02.191Z,21.57
2018-09-15T02:37:02.284Z,21.57
2018-09-15T02:38:02.381Z,21.57
2018-09-15T02:39:01.940Z,21.57
2018-09-15T02:40:02.029Z,21.57
2018-09-15T02:41:01.789Z,21.57
2018-09-15T02:42:01.992Z,21.59
2018-09-15T02:43:02.082Z,21.57
2018-09-15T02:44:02.359Z,21.56
2018-09-15T02:45:02.386Z,21.57
2018-09-15T02:46:01.997Z,21.54
2018-09-15T02:47:01.982Z,21.56
2018-09-15T02:48:02.210Z,21.57
2018-09-15T02:49:02.226Z,21.59
2018-09-15T02:50:02.061Z,21.57
2018-09-15T02:51:01.902Z,21.57
2018-09-15T02:52:02.369Z,21.56
2018-09-15T02:53:02.148Z,21.56
2018-09-15T02:54:02.090Z,21.59
2018-09-15T02:55:01.939Z,21.54
2018-09-15T02:56:02.257Z,21.53
2018-09-15T02:57:02.012Z,21.56
2018-09-15T02:58:02.238Z,21.57
2018-09-15T02:59:01.759Z,21.56
2018-09-15T03:00:02.112Z,21.59
2018-09-15T03:01:01.973Z,21.56
2018-09-15T03:02:02.341Z,21.53
2018-09-15T03:03:02.180Z,21.56
2018-09-15T03:04:02.083Z,21.56
2018-09-15T03:05:02.332Z,21.54
2018-09-15T03:06:02.311Z,21.56
2018-09-15T03:07:01.960Z,21.56
2018-09-15T03:08:02.040Z,21.54
2018-09-15T03:09:01.978Z,21.56
2018-09-15T03:10:02.486Z,21.56
2018-09-15T03:11:01.928Z,21.53
2018-09-15T03:12:02.195Z,21.54
2018-09-15T03:13:02.206Z,21.54
2018-09-15T03:14:02.413Z,21.53
2018-09-15T03:15:02.151Z,21.57
2018-09-15T03:16:01.805Z,21.54
2018-09-15T03:17:02.352Z,21.54
2018-09-15T03:18:02.151Z,21.54
2018-09-15T03:19:01.764Z,21.51
2018-09-15T03:20:01.972Z,21.56
2018-09-15T03:21:01.845Z,21.56
2018-09-15T03:22:01.924Z,21.54
2018-09-15T03:23:02.297Z,21.56
2018-09-15T03:24:01.957Z,21.54
2018-09-15T03:25:02.322Z,21.54
2018-09-15T03:26:02.071Z,21.57
2018-09-15T03:27:01.823Z,21.57
2018-09-15T03:28:02.036Z,21.54
2018-09-15T03:29:01.769Z,21.53
2018-09-15T03:30:01.861Z,21.54
2018-09-15T03:31:02.293Z,21.54
2018-09-15T03:32:01.942Z,21.56
2018-09-15T03:33:01.955Z,21.54
2018-09-15T03:34:01.949Z,21.54
2018-09-15T03:35:01.777Z,21.56
2018-09-15T03:36:01.854Z,21.57
2018-09-15T03:37:01.986Z,21.56
2018-09-15T03:38:01.979Z,21.53
2018-09-15T03:39:01.827Z,21.54
2018-09-15T03:40:02.036Z,21.54
2018-09-15T03:41:01.839Z,21.54
2018-09-15T03:42:03.184Z,21.54
2018-09-15T03:43:02.165Z,21.51
2018-09-15T03:44:02.222Z,21.54
2018-09-15T03:45:02.200Z,21.56
2018-09-15T03:46:02.327Z,21.53
2018-09-15T03:47:02.114Z,21.53
2018-09-15T03:48:02.302Z,21.54
2018-09-15T03:49:01.874Z,21.53
2018-09-15T03:50:02.040Z,21.53
2018-09-15T03:51:02.257Z,21.54
2018-09-15T03:52:01.997Z,21.56
2018-09-15T03:53:01.948Z,21.51
2018-09-15T03:54:01.893Z,21.54
2018-09-15T03:55:01.930Z,21.53
2018-09-15T03:56:02.086Z,21.53
2018-09-15T03:57:02.073Z,21.56
2018-09-15T03:58:02.148Z,21.51
2018-09-15T03:59:02.043Z,21.53
2018-09-15T04:00:02.826Z,21.51
2018-09-15T04:01:02.016Z,21.51
2018-09-15T04:02:01.873Z,21.53
2018-09-15T04:03:02.489Z,21.53
2018-09-15T04:04:01.985Z,21.53
2018-09-15T04:05:02.007Z,21.53
2018-09-15T04:06:02.115Z,21.51
2018-09-15T04:07:01.868Z,21.54
2018-09-15T04:08:02.068Z,21.49
2018-09-15T04:09:02.159Z,21.53
2018-09-15T04:10:01.877Z,21.47
2018-09-15T04:11:01.659Z,21.51
2018-09-15T04:12:01.794Z,21.54
2018-09-15T04:13:01.900Z,21.51
2018-09-15T04:14:01.942Z,21.51
2018-09-15T04:15:01.961Z,21.53
2018-09-15T04:16:02.065Z,21.5
2018-09-15T04:17:02.063Z,21.51
2018-09-15T04:18:02.056Z,21.53
2018-09-15T04:19:02.848Z,21.51
2018-09-15T04:20:02.100Z,21.53
2018-09-15T04:21:01.803Z,21.53
2018-09-15T04:22:01.830Z,21.5
2018-09-15T04:23:02.002Z,21.53
2018-09-15T04:24:02.019Z,21.51
2018-09-15T04:25:02.291Z,21.5
2018-09-15T04:26:01.954Z,21.54
2018-09-15T04:27:01.768Z,21.54
2018-09-15T04:28:01.928Z,21.5
2018-09-15T04:29:02.088Z,21.5
2018-09-15T04:30:02.161Z,21.53
2018-09-15T04:31:01.975Z,21.49
2018-09-15T04:32:02.254Z,21.5
2018-09-15T04:33:02.141Z,21.5
2018-09-15T04:34:01.947Z,21.5
2018-09-15T04:35:01.940Z,21.51
2018-09-15T04:36:02.078Z,21.53
2018-09-15T04:37:01.941Z,21.5
2018-09-15T04:38:02.249Z,21.49
2018-09-15T04:39:02.287Z,21.5
2018-09-15T04:40:01.987Z,21.49
2018-09-15T04:41:01.950Z,21.5
2018-09-15T04:42:02.094Z,21.51
2018-09-15T04:43:01.851Z,21.49
2018-09-15T04:44:01.992Z,21.47
2018-09-15T04:45:01.976Z,21.49
2018-09-15T04:46:02.037Z,21.5
2018-09-15T04:47:01.879Z,21.47
2018-09-15T04:48:01.848Z,21.51
2018-09-15T04:49:01.978Z,21.49
2018-09-15T04:50:01.971Z,21.49
2018-09-15T04:51:02.014Z,21.51
2018-09-15T04:52:01.931Z,21.47
2018-09-15T04:53:01.955Z,21.49
2018-09-15T04:54:01.874Z,21.49
2018-09-15T04:55:01.925Z,21.43
2018-09-15T04:56:02.000Z,21.47
2018-09-15T04:57:01.946Z,21.47
2018-09-15T04:58:02.006Z,21.49
2018-09-15T04:59:02.010Z,21.47
2018-09-15T05:00:02.114Z,21.47
2018-09-15T05:01:02.099Z,21.44
2018-09-15T05:02:01.982Z,21.46
2018-09-15T05:03:01.935Z,21.47
2018-09-15T05:04:01.866Z,21.47
2018-09-15T05:05:02.337Z,21.49
2018-09-15T05:06:01.987Z,21.46
2018-09-15T05:07:01.911Z,21.44
2018-09-15T05:08:02.199Z,21.44
2018-09-15T05:09:01.912Z,21.47
2018-09-15T05:10:02.009Z,21.47
2018-09-15T05:11:01.816Z,21.46
2018-09-15T05:12:02.079Z,21.47
2018-09-15T05:13:02.771Z,21.44
2018-09-15T05:14:01.891Z,21.46
2018-09-15T05:15:01.931Z,21.46
2018-09-15T05:16:01.883Z,21.43
2018-09-15T05:17:01.858Z,21.44
2018-09-15T05:18:02.197Z,21.46
2018-09-15T05:19:01.790Z,21.46
2018-09-15T05:20:02.396Z,21.44
2018-09-15T05:21:02.104Z,21.46
2018-09-15T05:22:01.912Z,21.47
2018-09-15T05:23:01.842Z,21.46
2018-09-15T05:24:01.864Z,21.46
2018-09-15T05:25:02.232Z,21.44
2018-09-15T05:26:01.945Z,21.46
2018-09-15T05:27:02.203Z,21.46
2018-09-15T05:28:01.823Z,21.44
2018-09-15T05:29:01.926Z,21.46
2018-09-15T05:30:02.240Z,21.47
2018-09-15T05:31:02.196Z,21.44
2018-09-15T05:32:01.971Z,21.43
2018-09-15T05:33:01.921Z,21.43
2018-09-15T05:34:01.948Z,21.44
2018-09-15T05:35:02.031Z,21.43
2018-09-15T05:36:02.179Z,21.44
2018-09-15T05:37:02.222Z,21.44
2018-09-15T05:38:01.858Z,21.43
2018-09-15T05:39:01.949Z,21.43
2018-09-15T05:40:03.245Z,21.46
2018-09-15T05:41:01.857Z,21.46
2018-09-15T05:42:01.952Z,21.43
2018-09-15T05:43:01.821Z,21.44
2018-09-15T05:44:01.853Z,21.47
2018-09-15T05:45:01.850Z,21.44
2018-09-15T05:46:02.090Z,21.46
2018-09-15T05:47:01.873Z,21.43
2018-09-15T05:48:01.889Z,21.44
2018-09-15T05:49:02.215Z,21.43
2018-09-15T05:50:01.975Z,21.44
2018-09-15T05:51:01.909Z,21.43
2018-09-15T05:52:02.138Z,21.43
2018-09-15T05:53:02.056Z,21.44
2018-09-15T05:54:01.992Z,21.47
2018-09-15T05:55:01.957Z,21.43
2018-09-15T05:56:02.260Z,21.47
2018-09-15T05:57:02.208Z,21.44
2018-09-15T05:58:02.054Z,21.42
2018-09-15T05:59:01.774Z,21.43
2018-09-15T06:00:01.993Z,21.43
2018-09-15T06:01:01.806Z,21.43
2018-09-15T06:02:02.019Z,21.46
2018-09-15T06:03:02.136Z,21.44
2018-09-15T06:04:02.046Z,21.43
2018-09-15T06:05:01.798Z,21.43
2018-09-15T06:06:02.196Z,21.43
2018-09-15T06:07:02.018Z,21.37
2018-09-15T06:08:01.949Z,21.29
2018-09-15T06:09:01.914Z,21.23
2018-09-15T06:10:01.925Z,21.19
2018-09-15T06:11:02.305Z,21.14
2018-09-15T06:12:02.060Z,21.08
2018-09-15T06:13:02.026Z,21.05
2018-09-15T06:14:02.116Z,21.01
2018-09-15T06:15:01.899Z,20.94
2018-09-15T06:16:01.779Z,20.91
2018-09-15T06:17:01.870Z,20.94
2018-09-15T06:18:01.944Z,20.99
2018-09-15T06:19:02.218Z,20.99
2018-09-15T06:20:02.032Z,21.03
2018-09-15T06:21:02.031Z,21.06
2018-09-15T06:22:01.924Z,21.09
2018-09-15T06:23:02.018Z,21.09
2018-09-15T06:24:01.853Z,21.09
2018-09-15T06:25:01.871Z,21.11
2018-09-15T06:26:01.896Z,21.11
2018-09-15T06:27:01.974Z,21.15
2018-09-15T06:28:01.839Z,21.15
2018-09-15T06:29:01.808Z,21.16
2018-09-15T06:30:02.208Z,21.16
2018-09-15T06:31:02.463Z,21.15
2018-09-15T06:32:02.113Z,21.14
2018-09-15T06:33:02.261Z,21.16
2018-09-15T06:34:01.935Z,21.19
2018-09-15T06:35:02.493Z,21.21
2018-09-15T06:36:02.044Z,21.19
2018-09-15T06:37:02.074Z,21.22
2018-09-15T06:38:01.742Z,21.22
2018-09-15T06:39:01.952Z,21.22
2018-09-15T06:40:01.967Z,21.23
2018-09-15T06:41:01.748Z,21.21
2018-09-15T06:42:01.975Z,21.23
2018-09-15T06:43:02.009Z,21.25
2018-09-15T06:44:01.822Z,21.26
2018-09-15T06:45:02.208Z,21.25
2018-09-15T06:46:02.043Z,21.26
2018-09-15T06:47:01.877Z,21.26
2018-09-15T06:48:01.915Z,21.27
2018-09-15T06:49:02.007Z,21.26
2018-09-15T06:50:01.862Z,21.27
2018-09-15T06:51:01.892Z,21.27
2018-09-15T06:52:02.005Z,21.27
2018-09-15T06:53:01.945Z,21.26
2018-09-15T06:54:01.907Z,21.27
2018-09-15T06:55:01.924Z,21.27
2018-09-15T06:56:01.734Z,21.27
2018-09-15T06:57:02.031Z,21.3
2018-09-15T06:58:01.828Z,21.33
2018-09-15T06:59:02.041Z,21.29
2018-09-15T07:00:02.009Z,21.27
2018-09-15T07:01:02.085Z,21.3
2018-09-15T07:02:01.837Z,21.3
2018-09-15T07:03:01.957Z,21.33
2018-09-15T07:04:01.810Z,21.33
2018-09-15T07:05:01.951Z,21.29
2018-09-15T07:06:01.944Z,21.32
2018-09-15T07:07:02.281Z,21.29
2018-09-15T07:08:01.875Z,21.32
2018-09-15T07:09:01.949Z,21.3
2018-09-15T07:10:02.045Z,21.3
2018-09-15T07:11:01.846Z,21.3
2018-09-15T07:12:01.850Z,21.32
2018-09-15T07:13:02.585Z,21.3
2018-09-15T07:14:02.145Z,21.3
2018-09-15T07:15:01.983Z,21.32
2018-09-15T07:16:02.049Z,21.27
2018-09-15T07:17:02.242Z,21.3
2018-09-15T07:18:02.158Z,21.3
2018-09-15T07:19:01.853Z,21.32
2018-09-15T07:20:02.363Z,21.34
2018-09-15T07:21:01.966Z,21.33
2018-09-15T07:22:01.950Z,21.3
2018-09-15T07:23:02.143Z,21.32
2018-09-15T07:24:01.928Z,21.32
2018-09-15T07:25:01.968Z,21.32
2018-09-15T07:26:02.642Z,21.33
2018-09-15T07:27:01.891Z,21.33
2018-09-15T07:28:01.960Z,21.36
2018-09-15T07:29:02.153Z,21.36
2018-09-15T07:30:01.994Z,21.34
2018-09-15T07:31:01.904Z,21.36
2018-09-15T07:32:02.101Z,21.33
2018-09-15T07:33:01.866Z,21.34
2018-09-15T07:34:01.861Z,21.42
2018-09-15T07:35:01.852Z,21.4
2018-09-15T07:36:01.947Z,21.36
2018-09-15T07:37:01.719Z,21.34
2018-09-15T07:38:02.085Z,21.33
2018-09-15T07:39:02.205Z,21.33
2018-09-15T07:40:02.021Z,21.32
2018-09-15T07:41:01.899Z,21.3
2018-09-15T07:42:01.878Z,21.34
2018-09-15T07:43:01.928Z,21.32
2018-09-15T07:44:02.189Z,21.34
2018-09-15T07:45:02.121Z,21.33
2018-09-15T07:46:02.070Z,21.37
2018-09-15T07:47:02.142Z,21.36
2018-09-15T07:48:01.859Z,21.34
2018-09-15T07:49:02.068Z,21.3
2018-09-15T07:50:01.736Z,21.26
2018-09-15T07:51:01.914Z,21.26
2018-09-15T07:52:02.026Z,21.29
2018-09-15T07:53:02.296Z,21.3
2018-09-15T07:54:01.867Z,21.3
2018-09-15T07:55:01.925Z,21.33
2018-09-15T07:56:01.917Z,21.36
2018-09-15T07:57:02.092Z,21.34
2018-09-15T07:58:03.172Z,21.34
2018-09-15T07:59:01.834Z,21.33
2018-09-15T08:00:01.874Z,21.32
2018-09-15T08:01:01.894Z,21.33
2018-09-15T08:02:02.476Z,21.36
2018-09-15T08:03:01.761Z,21.32
2018-09-15T08:04:01.827Z,21.23
2018-09-15T08:05:01.948Z,21.23
2018-09-15T08:06:01.985Z,21.14
2018-09-15T08:07:01.754Z,21.12
2018-09-15T08:08:01.920Z,21.06
2018-09-15T08:09:01.859Z,21.09
2018-09-15T08:10:02.053Z,21.09
2018-09-15T08:11:02.508Z,21.05
2018-09-15T08:12:02.007Z,21.02
2018-09-15T08:13:02.147Z,20.97
2018-09-15T08:14:01.891Z,20.94
2018-09-15T08:15:01.892Z,21.02
2018-09-15T08:16:01.975Z,20.98
2018-09-15T08:17:01.998Z,20.97
2018-09-15T08:18:01.820Z,20.98
2018-09-15T08:19:02.061Z,20.94
2018-09-15T08:20:01.950Z,20.88
2018-09-15T08:21:01.761Z,20.87
2018-09-15T08:22:02.043Z,20.91
2018-09-15T08:23:01.958Z,20.94
2018-09-15T08:24:01.937Z,20.89
2018-09-15T08:25:01.906Z,20.91
2018-09-15T08:26:02.234Z,20.87
2018-09-15T08:27:01.856Z,20.89
2018-09-15T08:28:02.067Z,20.88
2018-09-15T08:29:01.818Z,20.87
2018-09-15T08:30:01.971Z,20.87
2018-09-15T08:31:01.919Z,20.88
2018-09-15T08:32:02.690Z,20.87
2018-09-15T08:33:01.837Z,20.87
2018-09-15T08:34:01.926Z,20.85
2018-09-15T08:35:02.277Z,20.87
2018-09-15T08:36:02.147Z,20.85
2018-09-15T08:37:01.889Z,20.84
2018-09-15T08:38:01.841Z,20.84
2018-09-15T08:39:01.962Z,20.84
2018-09-15T08:40:02.250Z,20.85
2018-09-15T08:41:01.998Z,20.82
2018-09-15T08:42:01.781Z,20.88
2018-09-15T08:43:02.028Z,20.87
2018-09-15T08:44:01.758Z,20.87
2018-09-15T08:45:02.063Z,20.87
2018-09-15T08:46:01.864Z,20.81
2018-09-15T08:47:02.127Z,20.81
2018-09-15T08:48:01.968Z,20.85
2018-09-15T08:49:01.943Z,20.87
2018-09-15T08:50:01.968Z,20.88
2018-09-15T08:51:02.084Z,20.85
2018-09-15T08:52:01.828Z,20.78
2018-09-15T08:53:01.990Z,20.77
2018-09-15T08:54:02.356Z,20.8
2018-09-15T08:55:02.159Z,20.75
2018-09-15T08:56:02.438Z,20.81
2018-09-15T08:57:01.865Z,20.75
2018-09-15T08:58:01.802Z,20.75
2018-09-15T08:59:02.057Z,20.77
2018-09-15T09:00:01.889Z,20.8
2018-09-15T09:01:02.017Z,20.77
2018-09-15T09:02:01.987Z,20.8
2018-09-15T09:03:02.005Z,20.78
2018-09-15T09:04:02.004Z,20.77
2018-09-15T09:05:01.905Z,20.77
2018-09-15T09:06:02.295Z,20.75
2018-09-15T09:07:01.872Z,20.77
2018-09-15T09:08:01.908Z,20.82
2018-09-15T09:09:01.948Z,20.82
2018-09-15T09:10:01.909Z,20.8
2018-09-15T09:11:02.373Z,20.84
2018-09-15T09:12:01.737Z,20.85
2018-09-15T09:13:01.820Z,20.81
2018-09-15T09:14:01.908Z,20.82
2018-09-15T09:15:02.017Z,20.84
2018-09-15T09:16:01.974Z,20.82
2018-09-15T09:17:01.932Z,20.84
2018-09-15T09:18:02.018Z,20.85
2018-09-15T09:19:02.008Z,20.84
2018-09-15T09:20:03.054Z,20.85
2018-09-15T09:21:01.862Z,20.84
2018-09-15T09:22:01.991Z,20.84
2018-09-15T09:23:01.904Z,20.85
2018-09-15T09:24:01.785Z,20.87
2018-09-15T09:25:01.947Z,20.85
2018-09-15T09:26:02.885Z,20.84
2018-09-15T09:27:01.841Z,20.81
2018-09-15T09:28:01.868Z,20.77
2018-09-15T09:29:01.864Z,20.85
2018-09-15T09:30:01.958Z,20.87
2018-09-15T09:31:01.862Z,20.85
2018-09-15T09:32:01.876Z,20.88
2018-09-15T09:33:01.860Z,20.89
2018-09-15T09:34:01.731Z,20.91
2018-09-15T09:35:01.854Z,20.88
2018-09-15T09:36:01.847Z,20.89
2018-09-15T09:37:01.904Z,20.89
2018-09-15T09:38:01.913Z,20.91
2018-09-15T09:39:02.053Z,20.91
2018-09-15T09:40:02.137Z,20.88
2018-09-15T09:41:01.965Z,20.92
2018-09-15T09:42:01.955Z,20.94
2018-09-15T09:43:01.973Z,20.94
2018-09-15T09:44:01.771Z,20.92
2018-09-15T09:45:01.949Z,20.95
2018-09-15T09:46:02.378Z,20.95
2018-09-15T09:47:01.978Z,20.94
2018-09-15T09:48:03.171Z,20.95
2018-09-15T09:49:01.852Z,20.97
2018-09-15T09:50:01.892Z,20.95
2018-09-15T09:51:02.268Z,20.95
2018-09-15T09:52:01.816Z,20.97
2018-09-15T09:53:01.869Z,20.98
2018-09-15T09:54:01.868Z,20.98
2018-09-15T09:55:01.976Z,20.98
2018-09-15T09:56:01.982Z,20.97
2018-09-15T09:57:01.893Z,20.94
2018-09-15T09:58:01.886Z,20.97
2018-09-15T09:59:01.932Z,20.95
2018-09-15T10:00:01.908Z,20.95
2018-09-15T10:01:02.124Z,20.95
2018-09-15T10:02:01.884Z,20.97
2018-09-15T10:03:01.898Z,21.01
2018-09-15T10:04:02.067Z,20.99
2018-09-15T10:05:01.897Z,21.01
2018-09-15T10:06:01.891Z,20.99
2018-09-15T10:07:02.263Z,21.01
2018-09-15T10:08:02.003Z,20.95
2018-09-15T10:09:02.255Z,20.95
2018-09-15T10:10:01.879Z,20.97
2018-09-15T10:11:01.954Z,20.97
2018-09-15T10:12:01.954Z,20.99
2018-09-15T10:13:02.066Z,20.98
2018-09-15T10:14:01.946Z,20.98
2018-09-15T10:15:01.984Z,20.97
2018-09-15T10:16:02.991Z,21.01
2018-09-15T10:17:02.182Z,20.99
2018-09-15T10:18:02.047Z,20.99
2018-09-15T10:19:02.058Z,21.01
2018-09-15T10:20:02.017Z,21.02
2018-09-15T10:21:01.859Z,21.05
2018-09-15T10:22:01.848Z,21.12
2018-09-15T10:23:02.632Z,21.11
2018-09-15T10:24:01.783Z,21.15
2018-09-15T10:25:04.173Z,21.16
2018-09-15T10:26:01.935Z,21.14
2018-09-15T10:27:03.172Z,21.14
2018-09-15T10:28:01.842Z,21.15
2018-09-15T10:29:02.000Z,21.14
2018-09-15T10:30:01.889Z,21.15
2018-09-15T10:31:01.820Z,21.16
2018-09-15T10:32:02.551Z,21.18
2018-09-15T10:33:01.709Z,21.22
2018-09-15T10:34:01.795Z,21.21
2018-09-15T10:35:01.741Z,21.23
2018-09-15T10:36:02.003Z,21.25
2018-09-15T10:37:01.940Z,21.25
2018-09-15T10:38:02.276Z,21.23
2018-09-15T10:39:01.868Z,21.23
2018-09-15T10:40:01.993Z,21.27
2018-09-15T10:41:02.015Z,21.27
2018-09-15T10:42:02.049Z,21.3
2018-09-15T10:43:02.075Z,21.3
2018-09-15T10:44:02.137Z,21.27
2018-09-15T10:45:01.879Z,21.3
2018-09-15T10:46:02.707Z,21.29
2018-09-15T10:47:01.749Z,21.27
2018-09-15T10:48:01.986Z,21.32
2018-09-15T10:49:01.880Z,21.32
2018-09-15T10:50:01.844Z,21.32
2018-09-15T10:51:01.905Z,21.27
2018-09-15T10:52:01.967Z,21.32
2018-09-15T10:53:01.836Z,21.3
2018-09-15T10:54:01.988Z,21.3
2018-09-15T10:55:01.893Z,21.29
2018-09-15T10:56:01.761Z,21.32
2018-09-15T10:57:01.845Z,21.3
2018-09-15T10:58:01.840Z,21.32
2018-09-15T10:59:01.793Z,21.32
2018-09-15T11:00:01.931Z,21.3
2018-09-15T11:01:01.920Z,21.33
2018-09-15T11:02:02.105Z,21.32
2018-09-15T11:03:01.967Z,21.34
2018-09-15T11:04:01.852Z,21.33
2018-09-15T11:05:01.845Z,21.34
2018-09-15T11:06:02.040Z,21.33
2018-09-15T11:07:02.211Z,21.33
2018-09-15T11:08:02.185Z,21.34
2018-09-15T11:09:01.863Z,21.33
2018-09-15T11:10:01.851Z,21.34
2018-09-15T11:11:01.838Z,21.34
2018-09-15T11:12:02.063Z,21.34
2018-09-15T11:13:01.850Z,21.3
2018-09-15T11:14:01.862Z,21.32
2018-09-15T11:15:01.972Z,21.34
2018-09-15T11:16:02.077Z,21.32
2018-09-15T11:17:03.288Z,21.33
2018-09-15T11:18:01.651Z,21.32
2018-09-15T11:19:01.967Z,21.29
2018-09-15T11:20:02.109Z,21.34
2018-09-15T11:21:02.192Z,21.3
2018-09-15T11:22:01.742Z,21.3
2018-09-15T11:23:01.985Z,21.3
2018-09-15T11:24:01.843Z,21.29
2018-09-15T11:25:02.011Z,21.29
2018-09-15T11:26:02.173Z,21.3
2018-09-15T11:27:01.905Z,21.3
2018-09-15T11:28:03.126Z,21.32
2018-09-15T11:29:02.538Z,21.3
2018-09-15T11:30:01.892Z,21.29
2018-09-15T11:31:02.101Z,21.29
2018-09-15T11:32:01.661Z,21.3
2018-09-15T11:33:01.737Z,21.29
2018-09-15T11:34:02.592Z,21.29
2018-09-15T11:35:02.001Z,21.29
2018-09-15T11:36:01.799Z,21.3
2018-09-15T11:37:02.012Z,21.29
2018-09-15T11:38:01.988Z,21.29
2018-09-15T11:39:02.004Z,21.27
2018-09-15T11:40:02.017Z,21.29
2018-09-15T11:41:02.480Z,21.29
2018-09-15T11:42:01.968Z,21.27
2018-09-15T11:43:01.840Z,21.26
2018-09-15T11:44:01.803Z,21.29
2018-09-15T11:45:01.927Z,21.29
2018-09-15T11:46:02.185Z,21.27
2018-09-15T11:47:01.911Z,21.27
2018-09-15T11:48:02.964Z,21.27
2018-09-15T11:49:02.137Z,21.26
2018-09-15T11:50:01.652Z,21.27
2018-09-15T11:51:02.114Z,21.27
2018-09-15T11:52:01.935Z,21.29
2018-09-15T11:53:01.745Z,21.27
2018-09-15T11:54:01.791Z,21.27
2018-09-15T11:55:01.734Z,21.26
2018-09-15T11:56:02.294Z,21.26
2018-09-15T11:57:01.758Z,21.29
2018-09-15T11:58:01.802Z,21.26
2018-09-15T11:59:01.877Z,21.25
2018-09-15T12:00:02.505Z,21.29
2018-09-15T12:01:01.975Z,21.29
2018-09-15T12:02:02.854Z,21.27
2018-09-15T12:03:01.933Z,21.27
2018-09-15T12:04:01.836Z,21.26
2018-09-15T12:05:01.875Z,21.29
2018-09-15T12:06:01.777Z,21.27
2018-09-15T12:07:01.899Z,21.27
2018-09-15T12:08:01.755Z,21.25
2018-09-15T12:09:01.788Z,21.26
2018-09-15T12:10:01.910Z,21.26
2018-09-15T12:11:01.888Z,21.29
2018-09-15T12:12:01.976Z,21.27
2018-09-15T12:13:02.105Z,21.26
2018-09-15T12:14:02.271Z,21.27
2018-09-15T12:15:01.888Z,21.27
2018-09-15T12:16:01.877Z,21.26
2018-09-15T12:17:01.926Z,21.27
2018-09-15T12:18:01.857Z,21.32
2018-09-15T12:19:01.998Z,21.33
2018-09-15T12:20:01.774Z,21.32
2018-09-15T12:21:01.807Z,21.34
2018-09-15T12:22:01.832Z,21.33
2018-09-15T12:23:01.698Z,21.32
2018-09-15T12:24:01.839Z,21.32
2018-09-15T12:25:01.875Z,21.29
2018-09-15T12:26:02.153Z,21.33
2018-09-15T12:27:02.097Z,21.34
2018-09-15T12:28:02.061Z,21.32
2018-09-15T12:29:01.857Z,21.33
2018-09-15T12:30:02.041Z,21.34
2018-09-15T12:31:02.167Z,21.34
2018-09-15T12:32:01.943Z,21.36
2018-09-15T12:33:02.157Z,21.36
2018-09-15T12:34:02.152Z,21.37
2018-09-15T12:35:01.822Z,21.42
2018-09-15T12:36:02.117Z,21.43
2018-09-15T12:36:58.895Z,21.49
2018-09-15T12:37:58.981Z,21.44
2018-09-15T12:38:59.349Z,21.44
2018-09-15T12:39:58.818Z,21.39
2018-09-15T12:40:58.767Z,21.39
2018-09-15T12:41:58.836Z,21.36
2018-09-15T12:42:59.139Z,21.36
2018-09-15T12:43:25.113Z,21.36
2018-09-15T12:44:25.029Z,21.32
2018-09-15T12:45:25.006Z,21.32
2018-09-15T12:46:09.701Z,21.3
2018-09-15T12:47:09.814Z,21.3
2018-09-15T12:48:09.834Z,21.3
2018-09-15T12:49:16.056Z,21.29
2018-09-15T12:50:16.335Z,21.29
2018-09-15T12:51:16.339Z,21.29
2018-09-15T12:52:16.826Z,21.29
2018-09-15T12:53:16.121Z,21.25